sensor_id;sensor_type;location;lat;lon;timestamp;temperature;humidity
23471;DHT22;11908;50.806;4.424;2022-09-27T00:01:15;11.10;99.90
23471;DHT22;11908;50.806;4.424;2022-09-27T00:03:41;11.00;99.90
23471;DHT22;11908;50.806;4.424;2022-09-27T00:06:14;11.00;99.90
23471;DHT22;11908;50.806;4.424;2022-09-27T00:08:40;11.00;99.90
23471;DHT22;11908;50.806;4.424;2022-09-27T00:11:27;11.00;99.90
23471;DHT22;11908;50.806;4.424;2022-09-27T00:13:54;11.00;99.90
23471;DHT22;11908;50.806;4.424;2022-09-27T00:16:21;11.00;99.90
23471;DHT22;11908;50.806;4.424;2022-09-27T00:18:47;11.00;99.90
23471;DHT22;11908;50.806;4.424;2022-09-27T00:21:13;11.00;99.90
23471;DHT22;11908;50.806;4.424;2022-09-27T00:23:39;10.90;99.90
23471;DHT22;11908;50.806;4.424;2022-09-27T00:26:06;10.90;99.90
23471;DHT22;11908;50.806;4.424;2022-09-27T00:28:32;10.80;99.90
23471;DHT22;11908;50.806;4.424;2022-09-27T00:30:58;10.90;99.90
23471;DHT22;11908;50.806;4.424;2022-09-27T00:33:24;10.80;99.90
23471;DHT22;11908;50.806;4.424;2022-09-27T00:35:50;10.80;99.90
23471;DHT22;11908;50.806;4.424;2022-09-27T00:38:16;10.70;99.90
23471;DHT22;11908;50.806;4.424;2022-09-27T00:40:42;10.80;99.90
23471;DHT22;11908;50.806;4.424;2022-09-27T00:43:16;10.80;99.90
23471;DHT22;11908;50.806;4.424;2022-09-27T00:45:49;10.80;99.90
23471;DHT22;11908;50.806;4.424;2022-09-27T00:48:18;10.80;99.90
23471;DHT22;11908;50.806;4.424;2022-09-27T00:50:46;10.80;99.90
23471;DHT22;11908;50.806;4.424;2022-09-27T00:55:43;10.80;99.90
23471;DHT22;11908;50.806;4.424;2022-09-27T00:58:12;10.80;99.90
23471;DHT22;11908;50.806;4.424;2022-09-27T01:00:43;10.90;99.90
23471;DHT22;11908;50.806;4.424;2022-09-27T01:03:14;10.80;99.90
23471;DHT22;11908;50.806;4.424;2022-09-27T01:05:42;10.80;99.90
23471;DHT22;11908;50.806;4.424;2022-09-27T01:08:08;10.90;99.90
23471;DHT22;11908;50.806;4.424;2022-09-27T01:10:39;10.90;99.90
23471;DHT22;11908;50.806;4.424;2022-09-27T01:30:29;10.70;99.90
23471;DHT22;11908;50.806;4.424;2022-09-27T01:33:11;10.80;99.90
23471;DHT22;11908;50.806;4.424;2022-09-27T01:38:41;10.70;99.90
23471;DHT22;11908;50.806;4.424;2022-09-27T01:43:56;10.80;99.90
23471;DHT22;11908;50.806;4.424;2022-09-27T01:46:30;10.70;99.90
23471;DHT22;11908;50.806;4.424;2022-09-27T01:48:59;10.60;99.90
23471;DHT22;11908;50.806;4.424;2022-09-27T01:51:38;10.60;99.90
23471;DHT22;11908;50.806;4.424;2022-09-27T01:54:11;10.60;99.90
23471;DHT22;11908;50.806;4.424;2022-09-27T01:56:46;10.70;99.90
23471;DHT22;11908;50.806;4.424;2022-09-27T01:59:25;10.60;99.90
23471;DHT22;11908;50.806;4.424;2022-09-27T02:01:55;10.50;99.90
23471;DHT22;11908;50.806;4.424;2022-09-27T02:04:27;10.60;99.90
23471;DHT22;11908;50.806;4.424;2022-09-27T02:06:58;10.50;99.90
23471;DHT22;11908;50.806;4.424;2022-09-27T02:09:35;10.60;99.90
23471;DHT22;11908;50.806;4.424;2022-09-27T02:12:05;10.60;99.90
23471;DHT22;11908;50.806;4.424;2022-09-27T02:14:43;10.70;99.90
23471;DHT22;11908;50.806;4.424;2022-09-27T02:17:33;10.70;99.90
23471;DHT22;11908;50.806;4.424;2022-09-27T02:23:06;10.70;99.90
23471;DHT22;11908;50.806;4.424;2022-09-27T02:25:47;10.80;99.90
23471;DHT22;11908;50.806;4.424;2022-09-27T02:30:50;10.70;99.90
23471;DHT22;11908;50.806;4.424;2022-09-27T02:33:18;10.60;99.90
23471;DHT22;11908;50.806;4.424;2022-09-27T02:35:44;10.60;99.90
23471;DHT22;11908;50.806;4.424;2022-09-27T02:38:10;10.60;99.90
23471;DHT22;11908;50.806;4.424;2022-09-27T02:40:42;10.70;99.90
23471;DHT22;11908;50.806;4.424;2022-09-27T02:43:08;10.70;99.90
23471;DHT22;11908;50.806;4.424;2022-09-27T02:48:28;10.60;99.90
23471;DHT22;11908;50.806;4.424;2022-09-27T02:56:17;10.50;99.90
23471;DHT22;11908;50.806;4.424;2022-09-27T03:01:56;10.50;99.90
23471;DHT22;11908;50.806;4.424;2022-09-27T03:04:34;10.50;99.90
23471;DHT22;11908;50.806;4.424;2022-09-27T03:07:00;10.60;99.90
23471;DHT22;11908;50.806;4.424;2022-09-27T03:09:44;10.60;99.90
23471;DHT22;11908;50.806;4.424;2022-09-27T03:12:10;10.60;99.90
23471;DHT22;11908;50.806;4.424;2022-09-27T03:14:36;10.60;99.90
23471;DHT22;11908;50.806;4.424;2022-09-27T03:17:01;10.50;99.90
23471;DHT22;11908;50.806;4.424;2022-09-27T03:19:27;10.60;99.90
23471;DHT22;11908;50.806;4.424;2022-09-27T03:21:52;10.60;99.90
23471;DHT22;11908;50.806;4.424;2022-09-27T03:24:18;10.60;99.90
23471;DHT22;11908;50.806;4.424;2022-09-27T03:26:44;10.60;99.90
23471;DHT22;11908;50.806;4.424;2022-09-27T03:29:09;10.70;99.90
23471;DHT22;11908;50.806;4.424;2022-09-27T03:31:35;10.70;99.90
23471;DHT22;11908;50.806;4.424;2022-09-27T03:34:01;10.70;99.90
23471;DHT22;11908;50.806;4.424;2022-09-27T03:36:26;10.80;99.90
23471;DHT22;11908;50.806;4.424;2022-09-27T03:38:53;10.80;99.90
23471;DHT22;11908;50.806;4.424;2022-09-27T03:41:18;10.80;99.90
23471;DHT22;11908;50.806;4.424;2022-09-27T03:43:44;10.70;99.90
23471;DHT22;11908;50.806;4.424;2022-09-27T03:46:10;10.70;99.90
23471;DHT22;11908;50.806;4.424;2022-09-27T03:48:35;10.80;99.90
23471;DHT22;11908;50.806;4.424;2022-09-27T03:51:01;10.80;99.90
23471;DHT22;11908;50.806;4.424;2022-09-27T03:53:29;10.80;99.90
23471;DHT22;11908;50.806;4.424;2022-09-27T03:55:54;10.80;99.90
23471;DHT22;11908;50.806;4.424;2022-09-27T03:58:20;10.80;99.90
23471;DHT22;11908;50.806;4.424;2022-09-27T04:00:46;10.90;99.90
23471;DHT22;11908;50.806;4.424;2022-09-27T04:03:12;10.80;99.90
23471;DHT22;11908;50.806;4.424;2022-09-27T04:05:38;10.70;99.90
23471;DHT22;11908;50.806;4.424;2022-09-27T04:08:04;10.70;99.90
23471;DHT22;11908;50.806;4.424;2022-09-27T04:10:31;10.70;99.90
23471;DHT22;11908;50.806;4.424;2022-09-27T04:12:56;10.70;99.90
23471;DHT22;11908;50.806;4.424;2022-09-27T04:15:22;10.80;99.90
23471;DHT22;11908;50.806;4.424;2022-09-27T04:17:48;10.60;99.90
23471;DHT22;11908;50.806;4.424;2022-09-27T04:20:14;10.40;99.90
23471;DHT22;11908;50.806;4.424;2022-09-27T04:22:40;10.40;99.90
23471;DHT22;11908;50.806;4.424;2022-09-27T04:25:07;10.50;99.90
23471;DHT22;11908;50.806;4.424;2022-09-27T04:27:34;10.50;99.90
23471;DHT22;11908;50.806;4.424;2022-09-27T04:29:59;10.40;99.90
23471;DHT22;11908;50.806;4.424;2022-09-27T04:32:25;10.30;99.90
23471;DHT22;11908;50.806;4.424;2022-09-27T04:34:51;10.30;99.90
23471;DHT22;11908;50.806;4.424;2022-09-27T04:37:35;10.30;99.90
23471;DHT22;11908;50.806;4.424;2022-09-27T04:40:02;10.30;99.90
23471;DHT22;11908;50.806;4.424;2022-09-27T04:42:28;10.20;99.90
23471;DHT22;11908;50.806;4.424;2022-09-27T04:44:54;10.30;99.90
23471;DHT22;11908;50.806;4.424;2022-09-27T04:47:19;10.20;99.90
23471;DHT22;11908;50.806;4.424;2022-09-27T04:49:46;10.30;99.90
23471;DHT22;11908;50.806;4.424;2022-09-27T04:52:12;10.30;99.90
23471;DHT22;11908;50.806;4.424;2022-09-27T04:54:39;10.20;99.90
23471;DHT22;11908;50.806;4.424;2022-09-27T04:57:05;10.30;99.90
23471;DHT22;11908;50.806;4.424;2022-09-27T04:59:31;10.30;99.90
23471;DHT22;11908;50.806;4.424;2022-09-27T05:01:57;10.50;99.90
23471;DHT22;11908;50.806;4.424;2022-09-27T05:04:26;10.60;99.90
23471;DHT22;11908;50.806;4.424;2022-09-27T05:06:51;10.50;99.90
23471;DHT22;11908;50.806;4.424;2022-09-27T05:09:18;10.50;99.90
23471;DHT22;11908;50.806;4.424;2022-09-27T05:11:44;10.50;99.90
23471;DHT22;11908;50.806;4.424;2022-09-27T05:14:09;10.50;99.90
23471;DHT22;11908;50.806;4.424;2022-09-27T05:16:35;10.50;99.90
23471;DHT22;11908;50.806;4.424;2022-09-27T05:19:02;10.50;99.90
23471;DHT22;11908;50.806;4.424;2022-09-27T05:21:28;10.50;99.90
23471;DHT22;11908;50.806;4.424;2022-09-27T05:23:53;10.50;99.90
23471;DHT22;11908;50.806;4.424;2022-09-27T05:26:19;10.40;99.90
23471;DHT22;11908;50.806;4.424;2022-09-27T05:28:45;10.50;99.90
23471;DHT22;11908;50.806;4.424;2022-09-27T05:31:12;10.40;99.90
23471;DHT22;11908;50.806;4.424;2022-09-27T05:33:39;10.30;99.90
23471;DHT22;11908;50.806;4.424;2022-09-27T05:36:04;10.30;99.90
23471;DHT22;11908;50.806;4.424;2022-09-27T05:38:30;10.30;99.90
23471;DHT22;11908;50.806;4.424;2022-09-27T05:40:56;10.40;99.90
23471;DHT22;11908;50.806;4.424;2022-09-27T05:43:21;10.30;99.90
23471;DHT22;11908;50.806;4.424;2022-09-27T05:45:48;10.20;99.90
23471;DHT22;11908;50.806;4.424;2022-09-27T05:48:15;10.10;99.90
23471;DHT22;11908;50.806;4.424;2022-09-27T05:50:41;10.10;99.90
23471;DHT22;11908;50.806;4.424;2022-09-27T05:53:08;10.10;99.90
23471;DHT22;11908;50.806;4.424;2022-09-27T05:55:33;10.10;99.90
23471;DHT22;11908;50.806;4.424;2022-09-27T05:58:00;10.00;99.90
23471;DHT22;11908;50.806;4.424;2022-09-27T06:00:27;10.00;99.90
23471;DHT22;11908;50.806;4.424;2022-09-27T06:02:54;10.10;99.90
23471;DHT22;11908;50.806;4.424;2022-09-27T06:05:20;10.00;99.90
23471;DHT22;11908;50.806;4.424;2022-09-27T06:07:45;10.10;99.90
23471;DHT22;11908;50.806;4.424;2022-09-27T06:10:13;10.20;99.90
23471;DHT22;11908;50.806;4.424;2022-09-27T06:12:39;10.30;99.90
23471;DHT22;11908;50.806;4.424;2022-09-27T06:15:05;10.20;99.90
23471;DHT22;11908;50.806;4.424;2022-09-27T06:17:33;10.30;99.90
23471;DHT22;11908;50.806;4.424;2022-09-27T06:19:59;10.10;99.90
23471;DHT22;11908;50.806;4.424;2022-09-27T06:22:25;10.10;99.90
23471;DHT22;11908;50.806;4.424;2022-09-27T06:24:51;10.10;99.90
23471;DHT22;11908;50.806;4.424;2022-09-27T06:27:16;10.10;99.90
23471;DHT22;11908;50.806;4.424;2022-09-27T06:29:43;10.20;99.90
23471;DHT22;11908;50.806;4.424;2022-09-27T06:32:09;10.30;99.90
23471;DHT22;11908;50.806;4.424;2022-09-27T06:34:35;10.30;99.90
23471;DHT22;11908;50.806;4.424;2022-09-27T06:37:01;10.20;99.90
23471;DHT22;11908;50.806;4.424;2022-09-27T06:39:27;10.10;99.90
23471;DHT22;11908;50.806;4.424;2022-09-27T06:41:54;10.10;99.90
23471;DHT22;11908;50.806;4.424;2022-09-27T06:44:23;10.10;99.90
23471;DHT22;11908;50.806;4.424;2022-09-27T06:46:50;10.20;99.90
23471;DHT22;11908;50.806;4.424;2022-09-27T06:49:16;10.20;99.90
23471;DHT22;11908;50.806;4.424;2022-09-27T06:51:41;10.20;99.90
23471;DHT22;11908;50.806;4.424;2022-09-27T06:54:07;10.30;99.90
23471;DHT22;11908;50.806;4.424;2022-09-27T06:56:33;10.40;99.90
23471;DHT22;11908;50.806;4.424;2022-09-27T06:58:58;10.30;99.90
23471;DHT22;11908;50.806;4.424;2022-09-27T07:01:43;10.30;99.90
23471;DHT22;11908;50.806;4.424;2022-09-27T07:04:10;10.40;99.90
23471;DHT22;11908;50.806;4.424;2022-09-27T07:06:36;10.50;99.90
23471;DHT22;11908;50.806;4.424;2022-09-27T07:09:02;10.60;99.90
23471;DHT22;11908;50.806;4.424;2022-09-27T07:11:28;10.80;99.90
23471;DHT22;11908;50.806;4.424;2022-09-27T07:13:54;11.00;99.90
23471;DHT22;11908;50.806;4.424;2022-09-27T07:16:21;10.90;99.90
23471;DHT22;11908;50.806;4.424;2022-09-27T07:18:48;10.90;99.90
23471;DHT22;11908;50.806;4.424;2022-09-27T07:21:14;10.80;99.90
23471;DHT22;11908;50.806;4.424;2022-09-27T07:23:41;10.70;99.90
23471;DHT22;11908;50.806;4.424;2022-09-27T07:26:06;10.70;99.90
23471;DHT22;11908;50.806;4.424;2022-09-27T07:28:35;10.60;99.90
23471;DHT22;11908;50.806;4.424;2022-09-27T07:31:02;10.60;99.90
23471;DHT22;11908;50.806;4.424;2022-09-27T07:33:28;10.70;99.90
23471;DHT22;11908;50.806;4.424;2022-09-27T07:35:54;10.80;99.90
23471;DHT22;11908;50.806;4.424;2022-09-27T07:38:20;10.90;99.90
23471;DHT22;11908;50.806;4.424;2022-09-27T07:40:45;10.90;99.90
23471;DHT22;11908;50.806;4.424;2022-09-27T07:43:11;10.90;99.90
23471;DHT22;11908;50.806;4.424;2022-09-27T07:45:37;11.00;99.90
23471;DHT22;11908;50.806;4.424;2022-09-27T07:48:07;11.00;99.90
23471;DHT22;11908;50.806;4.424;2022-09-27T07:50:35;11.20;99.90
23471;DHT22;11908;50.806;4.424;2022-09-27T07:53:02;11.30;99.90
23471;DHT22;11908;50.806;4.424;2022-09-27T07:55:29;11.30;99.90
23471;DHT22;11908;50.806;4.424;2022-09-27T07:58:02;11.30;99.90
23471;DHT22;11908;50.806;4.424;2022-09-27T08:00:28;11.30;99.90
23471;DHT22;11908;50.806;4.424;2022-09-27T08:02:54;11.20;99.90
23471;DHT22;11908;50.806;4.424;2022-09-27T08:05:20;11.20;99.90
23471;DHT22;11908;50.806;4.424;2022-09-27T08:07:45;11.10;99.90
23471;DHT22;11908;50.806;4.424;2022-09-27T08:10:11;11.20;99.90
23471;DHT22;11908;50.806;4.424;2022-09-27T08:12:37;11.20;99.90
23471;DHT22;11908;50.806;4.424;2022-09-27T08:15:03;11.20;99.90
23471;DHT22;11908;50.806;4.424;2022-09-27T08:17:30;11.20;99.90
23471;DHT22;11908;50.806;4.424;2022-09-27T08:19:56;11.10;99.90
23471;DHT22;11908;50.806;4.424;2022-09-27T08:22:22;11.10;99.90
23471;DHT22;11908;50.806;4.424;2022-09-27T08:24:48;11.30;99.90
23471;DHT22;11908;50.806;4.424;2022-09-27T08:27:14;12.00;99.90
23471;DHT22;11908;50.806;4.424;2022-09-27T08:29:40;12.50;99.90
23471;DHT22;11908;50.806;4.424;2022-09-27T08:32:10;12.70;99.90
23471;DHT22;11908;50.806;4.424;2022-09-27T08:34:36;13.20;99.90
23471;DHT22;11908;50.806;4.424;2022-09-27T08:37:03;13.70;99.90
23471;DHT22;11908;50.806;4.424;2022-09-27T08:39:29;14.00;99.90
23471;DHT22;11908;50.806;4.424;2022-09-27T08:44:54;13.80;99.90
23471;DHT22;11908;50.806;4.424;2022-09-27T08:47:28;13.80;99.90
23471;DHT22;11908;50.806;4.424;2022-09-27T08:53:04;13.40;99.90
23471;DHT22;11908;50.806;4.424;2022-09-27T08:55:39;13.20;99.90
23471;DHT22;11908;50.806;4.424;2022-09-27T08:58:27;13.10;99.90
23471;DHT22;11908;50.806;4.424;2022-09-27T09:01:05;12.50;99.90
23471;DHT22;11908;50.806;4.424;2022-09-27T09:03:44;12.50;99.90
23471;DHT22;11908;50.806;4.424;2022-09-27T09:11:26;12.30;99.90
23471;DHT22;11908;50.806;4.424;2022-09-27T09:14:41;12.40;99.90
23471;DHT22;11908;50.806;4.424;2022-09-27T09:25:34;12.20;99.90
23471;DHT22;11908;50.806;4.424;2022-09-27T09:34:09;11.90;99.90
23471;DHT22;11908;50.806;4.424;2022-09-27T09:37:19;12.00;99.90
23471;DHT22;11908;50.806;4.424;2022-09-27T09:39:54;12.10;99.90
23471;DHT22;11908;50.806;4.424;2022-09-27T09:42:32;12.10;99.90
23471;DHT22;11908;50.806;4.424;2022-09-27T09:52:47;12.90;99.90
23471;DHT22;11908;50.806;4.424;2022-09-27T09:55:22;12.90;99.90
23471;DHT22;11908;50.806;4.424;2022-09-27T10:00:44;13.10;99.90
23471;DHT22;11908;50.806;4.424;2022-09-27T10:03:10;13.10;99.90
23471;DHT22;11908;50.806;4.424;2022-09-27T10:05:36;13.30;99.90
23471;DHT22;11908;50.806;4.424;2022-09-27T10:08:05;13.40;99.90
23471;DHT22;11908;50.806;4.424;2022-09-27T10:10:33;13.40;99.90
23471;DHT22;11908;50.806;4.424;2022-09-27T10:13:02;13.40;99.90
23471;DHT22;11908;50.806;4.424;2022-09-27T10:15:29;13.80;99.90
23471;DHT22;11908;50.806;4.424;2022-09-27T10:17:57;14.60;99.90
23471;DHT22;11908;50.806;4.424;2022-09-27T10:20:32;14.80;99.90
23471;DHT22;11908;50.806;4.424;2022-09-27T10:23:24;15.10;99.90
23471;DHT22;11908;50.806;4.424;2022-09-27T10:28:45;15.60;99.90
23471;DHT22;11908;50.806;4.424;2022-09-27T10:31:17;15.80;99.90
23471;DHT22;11908;50.806;4.424;2022-09-27T10:34:03;15.80;99.90
23471;DHT22;11908;50.806;4.424;2022-09-27T10:36:32;15.40;99.90
23471;DHT22;11908;50.806;4.424;2022-09-27T10:39:01;15.40;99.90
23471;DHT22;11908;50.806;4.424;2022-09-27T10:41:36;15.50;99.90
23471;DHT22;11908;50.806;4.424;2022-09-27T10:46:46;15.60;99.90
23471;DHT22;11908;50.806;4.424;2022-09-27T10:49:20;15.60;99.90
23471;DHT22;11908;50.806;4.424;2022-09-27T10:51:51;15.30;99.90
23471;DHT22;11908;50.806;4.424;2022-09-27T10:54:26;15.50;99.90
23471;DHT22;11908;50.806;4.424;2022-09-27T10:59:27;15.70;99.90
23471;DHT22;11908;50.806;4.424;2022-09-27T11:01:55;15.70;99.90
23471;DHT22;11908;50.806;4.424;2022-09-27T11:06:50;15.10;99.90
23471;DHT22;11908;50.806;4.424;2022-09-27T11:09:22;14.80;99.90
23471;DHT22;11908;50.806;4.424;2022-09-27T11:12:15;14.80;99.90
23471;DHT22;11908;50.806;4.424;2022-09-27T11:14:52;14.80;99.90
23471;DHT22;11908;50.806;4.424;2022-09-27T11:17:31;15.20;99.90
23471;DHT22;11908;50.806;4.424;2022-09-27T11:31:18;14.30;99.90
23471;DHT22;11908;50.806;4.424;2022-09-27T11:34:14;14.30;99.90
23471;DHT22;11908;50.806;4.424;2022-09-27T11:37:11;14.30;99.90
23471;DHT22;11908;50.806;4.424;2022-09-27T11:42:37;14.80;99.90
23471;DHT22;11908;50.806;4.424;2022-09-27T11:51:07;15.00;99.90
23471;DHT22;11908;50.806;4.424;2022-09-27T12:01:53;15.10;99.90
23471;DHT22;11908;50.806;4.424;2022-09-27T12:07:35;14.60;99.90
23471;DHT22;11908;50.806;4.424;2022-09-27T12:10:09;14.50;99.90
23471;DHT22;11908;50.806;4.424;2022-09-27T12:12:39;14.40;99.90
23471;DHT22;11908;50.806;4.424;2022-09-27T12:15:27;14.20;99.90
23471;DHT22;11908;50.806;4.424;2022-09-27T12:18:05;14.30;99.90
23471;DHT22;11908;50.806;4.424;2022-09-27T12:20:35;14.40;99.90
23471;DHT22;11908;50.806;4.424;2022-09-27T12:26:04;15.00;99.90
23471;DHT22;11908;50.806;4.424;2022-09-27T12:34:21;15.50;99.90
23471;DHT22;11908;50.806;4.424;2022-09-27T12:37:00;15.70;99.90
23471;DHT22;11908;50.806;4.424;2022-09-27T12:39:39;15.40;99.90
23471;DHT22;11908;50.806;4.424;2022-09-27T12:42:14;15.00;99.90
23471;DHT22;11908;50.806;4.424;2022-09-27T12:44:41;15.10;99.90
23471;DHT22;11908;50.806;4.424;2022-09-27T12:47:15;15.10;99.90
23471;DHT22;11908;50.806;4.424;2022-09-27T12:52:27;15.20;99.90
23471;DHT22;11908;50.806;4.424;2022-09-27T12:55:30;15.20;99.90
23471;DHT22;11908;50.806;4.424;2022-09-27T13:00:56;14.80;99.90
23471;DHT22;11908;50.806;4.424;2022-09-27T13:06:41;14.30;99.90
23471;DHT22;11908;50.806;4.424;2022-09-27T13:23:01;13.70;99.90
23471;DHT22;11908;50.806;4.424;2022-09-27T13:25:53;14.00;99.90
23471;DHT22;11908;50.806;4.424;2022-09-27T13:31:00;14.20;99.90
23471;DHT22;11908;50.806;4.424;2022-09-27T13:41:27;14.80;99.90
23471;DHT22;11908;50.806;4.424;2022-09-27T13:46:57;14.80;99.90
23471;DHT22;11908;50.806;4.424;2022-09-27T13:49:39;14.90;99.90
23471;DHT22;11908;50.806;4.424;2022-09-27T13:52:26;15.00;99.90
23471;DHT22;11908;50.806;4.424;2022-09-27T13:54:55;14.90;99.90
23471;DHT22;11908;50.806;4.424;2022-09-27T14:00:07;15.00;99.90
23471;DHT22;11908;50.806;4.424;2022-09-27T14:05:25;15.10;99.90
23471;DHT22;11908;50.806;4.424;2022-09-27T14:07:52;15.30;99.90
23471;DHT22;11908;50.806;4.424;2022-09-27T14:10:20;15.40;99.90
23471;DHT22;11908;50.806;4.424;2022-09-27T14:12:50;15.30;99.90
23471;DHT22;11908;50.806;4.424;2022-09-27T14:15:25;15.10;99.90
23471;DHT22;11908;50.806;4.424;2022-09-27T14:17:52;15.10;99.90
23471;DHT22;11908;50.806;4.424;2022-09-27T14:20:29;15.10;99.90
23471;DHT22;11908;50.806;4.424;2022-09-27T14:22:59;15.10;99.90
23471;DHT22;11908;50.806;4.424;2022-09-27T14:25:25;15.10;99.90
23471;DHT22;11908;50.806;4.424;2022-09-27T14:27:50;15.00;99.90
23471;DHT22;11908;50.806;4.424;2022-09-27T14:30:19;14.80;99.90
23471;DHT22;11908;50.806;4.424;2022-09-27T14:32:53;14.90;99.90
23471;DHT22;11908;50.806;4.424;2022-09-27T14:35:22;15.00;99.90
23471;DHT22;11908;50.806;4.424;2022-09-27T14:38:11;15.00;99.90
23471;DHT22;11908;50.806;4.424;2022-09-27T14:40:41;15.10;99.90
23471;DHT22;11908;50.806;4.424;2022-09-27T14:43:17;15.00;99.90
23471;DHT22;11908;50.806;4.424;2022-09-27T14:45:44;15.10;99.90
23471;DHT22;11908;50.806;4.424;2022-09-27T14:48:26;14.90;99.90
23471;DHT22;11908;50.806;4.424;2022-09-27T14:50:56;14.80;99.90
23471;DHT22;11908;50.806;4.424;2022-09-27T14:53:26;14.60;99.90
23471;DHT22;11908;50.806;4.424;2022-09-27T14:55:52;14.60;99.90
23471;DHT22;11908;50.806;4.424;2022-09-27T14:58:20;14.40;99.90
23471;DHT22;11908;50.806;4.424;2022-09-27T15:00:48;14.20;99.90
23471;DHT22;11908;50.806;4.424;2022-09-27T15:03:28;13.80;99.90
23471;DHT22;11908;50.806;4.424;2022-09-27T15:05:56;13.30;99.90
23471;DHT22;11908;50.806;4.424;2022-09-27T15:08:26;13.20;99.90
23471;DHT22;11908;50.806;4.424;2022-09-27T15:10:55;13.30;99.90
23471;DHT22;11908;50.806;4.424;2022-09-27T15:13:21;13.30;99.90
23471;DHT22;11908;50.806;4.424;2022-09-27T15:15:49;13.20;99.90
23471;DHT22;11908;50.806;4.424;2022-09-27T15:18:45;13.40;99.90
23471;DHT22;11908;50.806;4.424;2022-09-27T15:21:30;13.40;99.90
23471;DHT22;11908;50.806;4.424;2022-09-27T15:23:56;13.50;99.90
23471;DHT22;11908;50.806;4.424;2022-09-27T15:26:37;13.50;99.90
23471;DHT22;11908;50.806;4.424;2022-09-27T15:29:05;13.50;99.90
23471;DHT22;11908;50.806;4.424;2022-09-27T15:31:33;13.70;99.90
23471;DHT22;11908;50.806;4.424;2022-09-27T15:34:00;13.80;99.90
23471;DHT22;11908;50.806;4.424;2022-09-27T15:36:59;14.00;99.90
23471;DHT22;11908;50.806;4.424;2022-09-27T15:39:35;14.20;99.90
23471;DHT22;11908;50.806;4.424;2022-09-27T15:42:11;14.30;99.90
23471;DHT22;11908;50.806;4.424;2022-09-27T15:49:57;14.30;99.90
23471;DHT22;11908;50.806;4.424;2022-09-27T15:52:46;14.30;99.90
23471;DHT22;11908;50.806;4.424;2022-09-27T15:55:20;14.20;99.90
23471;DHT22;11908;50.806;4.424;2022-09-27T15:57:52;14.10;99.90
23471;DHT22;11908;50.806;4.424;2022-09-27T16:00:18;13.80;99.90
23471;DHT22;11908;50.806;4.424;2022-09-27T16:02:45;13.80;99.90
23471;DHT22;11908;50.806;4.424;2022-09-27T16:05:11;13.80;99.90
23471;DHT22;11908;50.806;4.424;2022-09-27T16:07:37;13.80;99.90
23471;DHT22;11908;50.806;4.424;2022-09-27T16:10:13;13.80;99.90
23471;DHT22;11908;50.806;4.424;2022-09-27T16:12:41;13.80;99.90
23471;DHT22;11908;50.806;4.424;2022-09-27T16:15:11;13.80;99.90
23471;DHT22;11908;50.806;4.424;2022-09-27T16:17:37;13.60;99.90
23471;DHT22;11908;50.806;4.424;2022-09-27T16:20:04;13.40;99.90
23471;DHT22;11908;50.806;4.424;2022-09-27T16:22:30;13.50;99.90
23471;DHT22;11908;50.806;4.424;2022-09-27T16:24:55;13.60;99.90
23471;DHT22;11908;50.806;4.424;2022-09-27T16:27:25;13.70;99.90
23471;DHT22;11908;50.806;4.424;2022-09-27T16:29:54;13.80;99.90
23471;DHT22;11908;50.806;4.424;2022-09-27T16:32:22;13.90;99.90
23471;DHT22;11908;50.806;4.424;2022-09-27T16:34:49;13.80;99.90
23471;DHT22;11908;50.806;4.424;2022-09-27T16:37:15;13.80;99.90
23471;DHT22;11908;50.806;4.424;2022-09-27T16:39:40;13.70;99.90
23471;DHT22;11908;50.806;4.424;2022-09-27T16:42:06;13.60;99.90
23471;DHT22;11908;50.806;4.424;2022-09-27T16:44:33;13.60;99.90
23471;DHT22;11908;50.806;4.424;2022-09-27T16:47:00;13.60;99.90
23471;DHT22;11908;50.806;4.424;2022-09-27T16:49:26;13.60;99.90
23471;DHT22;11908;50.806;4.424;2022-09-27T16:52:10;13.60;99.90
23471;DHT22;11908;50.806;4.424;2022-09-27T16:54:36;13.60;99.90
23471;DHT22;11908;50.806;4.424;2022-09-27T16:57:01;13.50;99.90
23471;DHT22;11908;50.806;4.424;2022-09-27T16:59:27;13.50;99.90
23471;DHT22;11908;50.806;4.424;2022-09-27T17:01:53;13.50;99.90
23471;DHT22;11908;50.806;4.424;2022-09-27T17:04:23;13.50;99.90
23471;DHT22;11908;50.806;4.424;2022-09-27T17:06:49;13.30;99.90
23471;DHT22;11908;50.806;4.424;2022-09-27T17:09:14;13.20;99.90
23471;DHT22;11908;50.806;4.424;2022-09-27T17:11:40;13.20;99.90
23471;DHT22;11908;50.806;4.424;2022-09-27T17:14:05;13.30;99.90
23471;DHT22;11908;50.806;4.424;2022-09-27T17:16:31;13.30;99.90
23471;DHT22;11908;50.806;4.424;2022-09-27T17:18:57;13.30;99.90
23471;DHT22;11908;50.806;4.424;2022-09-27T17:21:23;13.20;99.90
23471;DHT22;11908;50.806;4.424;2022-09-27T17:23:48;13.20;99.90
23471;DHT22;11908;50.806;4.424;2022-09-27T17:26:19;13.20;99.90
23471;DHT22;11908;50.806;4.424;2022-09-27T17:28:46;13.10;99.90
23471;DHT22;11908;50.806;4.424;2022-09-27T17:31:13;13.10;99.90
23471;DHT22;11908;50.806;4.424;2022-09-27T17:33:48;13.10;99.90
23471;DHT22;11908;50.806;4.424;2022-09-27T17:36:21;13.10;99.90
23471;DHT22;11908;50.806;4.424;2022-09-27T17:38:48;13.10;99.90
23471;DHT22;11908;50.806;4.424;2022-09-27T17:41:17;13.10;99.90
23471;DHT22;11908;50.806;4.424;2022-09-27T17:43:44;13.00;99.90
23471;DHT22;11908;50.806;4.424;2022-09-27T17:46:17;13.00;99.90
23471;DHT22;11908;50.806;4.424;2022-09-27T17:48:44;13.00;99.90
23471;DHT22;11908;50.806;4.424;2022-09-27T17:51:28;13.00;99.90
23471;DHT22;11908;50.806;4.424;2022-09-27T17:53:54;13.10;99.90
23471;DHT22;11908;50.806;4.424;2022-09-27T17:56:20;13.10;99.90
23471;DHT22;11908;50.806;4.424;2022-09-27T17:58:48;13.00;99.90
23471;DHT22;11908;50.806;4.424;2022-09-27T18:01:15;13.00;99.90
23471;DHT22;11908;50.806;4.424;2022-09-27T18:03:41;13.00;99.90
23471;DHT22;11908;50.806;4.424;2022-09-27T18:06:09;13.00;99.90
23471;DHT22;11908;50.806;4.424;2022-09-27T18:08:35;13.00;99.90
23471;DHT22;11908;50.806;4.424;2022-09-27T18:11:13;12.80;99.90
23471;DHT22;11908;50.806;4.424;2022-09-27T18:13:40;12.60;99.90
23471;DHT22;11908;50.806;4.424;2022-09-27T18:16:08;12.60;99.90
23471;DHT22;11908;50.806;4.424;2022-09-27T18:18:36;12.60;99.90
23471;DHT22;11908;50.806;4.424;2022-09-27T18:21:13;12.40;99.90
23471;DHT22;11908;50.806;4.424;2022-09-27T18:23:40;12.40;99.90
23471;DHT22;11908;50.806;4.424;2022-09-27T18:26:07;12.20;99.90
23471;DHT22;11908;50.806;4.424;2022-09-27T18:28:35;12.10;99.90
23471;DHT22;11908;50.806;4.424;2022-09-27T18:31:06;12.10;99.90
23471;DHT22;11908;50.806;4.424;2022-09-27T18:33:33;12.00;99.90
23471;DHT22;11908;50.806;4.424;2022-09-27T18:36:08;12.00;99.90
23471;DHT22;11908;50.806;4.424;2022-09-27T18:38:35;11.80;99.90
23471;DHT22;11908;50.806;4.424;2022-09-27T18:41:11;11.90;99.90
23471;DHT22;11908;50.806;4.424;2022-09-27T18:43:38;12.00;99.90